createdAt,value
2024-01-28T00:02:06.101Z,100134.97
2024-01-28T00:04:32.918Z,100123.53
2024-01-28T00:06:59.734Z,100132.38
2024-01-28T00:09:26.568Z,100136.16
2024-01-28T00:11:53.311Z,100136.88
2024-01-28T00:14:20.062Z,100136.88
2024-01-28T00:16:46.706Z,100145.78
2024-01-28T00:19:13.506Z,100150.13
2024-01-28T00:21:40.250Z,100156.28
2024-01-28T00:24:08.124Z,100159.75
2024-01-28T00:26:39.036Z,100158.03
2024-01-28T00:29:05.854Z,100152.72
2024-01-28T00:31:32.685Z,100143.34
2024-01-28T00:34:00.075Z,100151.91
2024-01-28T00:36:26.798Z,100151.91
2024-01-28T00:38:54.762Z,100095.28
2024-01-28T00:41:27.432Z,100142.63
2024-01-28T00:43:54.163Z,100159.91
2024-01-28T00:46:26.447Z,100155.47
2024-01-28T00:48:53.659Z,100169.56
2024-01-28T00:51:20.525Z,100163.41
2024-01-28T00:53:47.267Z,100172.25
2024-01-28T00:56:17.589Z,100170.47
2024-01-28T00:58:45.082Z,100174.03
2024-01-28T01:01:11.966Z,100161.81
2024-01-28T01:03:38.975Z,100176.69
2024-01-28T01:06:08.969Z,100173.38
2024-01-28T01:08:35.776Z,100181.06
2024-01-28T01:11:04.927Z,100181.06
2024-01-28T01:13:33.217Z,100173.41
2024-01-28T01:16:00.427Z,100171.50
2024-01-28T01:18:27.390Z,100174.16
2024-01-28T01:20:54.243Z,100180.31
2024-01-28T01:23:20.928Z,100181.16
2024-01-28T01:25:47.649Z,100171.84
2024-01-28T01:28:14.603Z,100193.44
2024-01-28T01:30:41.768Z,100190.88
2024-01-28T01:33:08.715Z,100187.31
2024-01-28T01:35:35.507Z,100189.06
2024-01-28T01:38:02.486Z,100185.66
2024-01-28T01:40:29.174Z,100181.22
2024-01-28T01:42:55.827Z,100169.09
2024-01-28T01:45:22.436Z,100176.88
2024-01-28T01:47:49.355Z,100174.28
2024-01-28T01:50:16.203Z,100172.50
2024-01-28T01:52:45.809Z,100168.28
2024-01-28T01:55:13.350Z,100177.84
2024-01-28T01:57:43.299Z,100179.56
2024-01-28T02:00:15.900Z,100175.16
2024-01-28T02:02:47.104Z,100181.31
2024-01-28T02:05:14.487Z,100184.97
2024-01-28T02:07:41.229Z,100179.75
2024-01-28T02:10:08.489Z,100188.34
2024-01-28T02:12:35.075Z,100185.69
2024-01-28T02:15:06.179Z,100194.50
2024-01-28T02:17:33.403Z,100183.94
2024-01-28T02:20:00.541Z,100178.97
2024-01-28T02:22:27.307Z,100190.13
2024-01-28T02:24:54.580Z,100198.06
2024-01-28T02:27:21.407Z,100201.53
2024-01-28T02:29:48.157Z,100205.09
2024-01-28T02:32:17.413Z,100200.69
2024-01-28T02:34:44.796Z,100201.63
2024-01-28T02:37:12.356Z,100207.75
2024-01-28T02:39:40.098Z,100196.59
2024-01-28T02:42:07.492Z,100202.53
2024-01-28T02:44:34.270Z,100208.63
2024-01-28T02:47:03.944Z,100196.41
2024-01-28T02:49:30.745Z,100206.81
2024-01-28T02:51:57.679Z,100211.19
2024-01-28T02:54:24.759Z,100212.91
2024-01-28T02:56:53.348Z,100208.63
2024-01-28T02:59:20.100Z,100217.34
2024-01-28T03:01:48.111Z,100215.63
2024-01-28T03:04:15.373Z,100207.81
2024-01-28T03:06:42.931Z,100213.03
2024-01-28T03:09:10.119Z,100208.69
2024-01-28T03:11:37.030Z,100214.75
2024-01-28T03:14:03.653Z,100215.63
2024-01-28T03:16:30.461Z,100206.91
2024-01-28T03:18:57.383Z,100214.75
2024-01-28T03:21:24.297Z,100213.75
2024-01-28T03:23:51.010Z,100215.53
2024-01-28T03:26:20.620Z,100216.47
2024-01-28T03:28:47.364Z,100208.88
2024-01-28T03:31:14.511Z,100219.19
2024-01-28T03:33:41.954Z,100226.03
2024-01-28T03:36:09.235Z,100221.66
2024-01-28T03:38:35.973Z,100213.75
2024-01-28T03:41:02.950Z,100226.19
2024-01-28T03:43:29.723Z,100227.84
2024-01-28T03:45:56.426Z,100220.03
2024-01-28T03:48:23.337Z,100219.03
2024-01-28T03:50:50.093Z,100233.94
2024-01-28T03:53:17.087Z,100233.94
2024-01-28T03:55:44.869Z,100221.75
2024-01-28T03:58:12.132Z,100243.53
2024-01-28T04:00:39.205Z,100238.31
2024-01-28T04:03:06.419Z,100243.59
2024-01-28T04:05:34.178Z,100240.88
2024-01-28T04:08:02.132Z,100239.97
2024-01-28T04:10:29.195Z,100242.59
2024-01-28T04:12:56.032Z,100239.91
2024-01-28T04:15:23.010Z,100251.44
2024-01-28T04:17:49.795Z,100247.97
2024-01-28T04:20:16.770Z,100249.63
2024-01-28T04:22:43.576Z,100254.97
2024-01-28T04:25:10.600Z,100260.19
2024-01-28T04:27:37.274Z,100259.34
2024-01-28T04:30:06.156Z,100260.19
2024-01-28T04:32:32.779Z,100250.59
2024-01-28T04:34:59.517Z,100263.66
2024-01-28T04:37:27.441Z,100257.47
2024-01-28T04:39:57.334Z,100256.81
2024-01-28T04:42:24.366Z,100266.31
2024-01-28T04:44:51.526Z,100257.53
2024-01-28T04:47:18.244Z,100263.72
2024-01-28T04:49:46.272Z,100268.16
2024-01-28T04:52:13.320Z,100270.59
2024-01-28T04:54:41.828Z,100266.38
2024-01-28T04:57:08.730Z,100271.66
2024-01-28T04:59:35.627Z,100283.78
2024-01-28T05:02:02.420Z,100292.59
2024-01-28T05:04:29.379Z,100287.56
2024-01-28T05:06:56.158Z,100301.38
2024-01-28T05:09:23.486Z,100290.22
2024-01-28T05:11:50.707Z,100310.16
2024-01-28T05:14:17.625Z,100311.16
2024-01-28T05:16:49.125Z,100312.00
2024-01-28T05:19:16.149Z,100305.91
2024-01-28T05:21:43.080Z,100314.63
2024-01-28T05:24:10.224Z,100309.28
2024-01-28T05:26:38.398Z,100303.22
2024-01-28T05:29:07.656Z,100306.72
2024-01-28T05:31:34.729Z,100310.19
2024-01-28T05:34:02.505Z,100298.13
2024-01-28T05:36:30.165Z,100315.44
2024-01-28T05:38:57.080Z,100315.38
2024-01-28T05:41:23.697Z,100312.84
2024-01-28T05:43:50.449Z,100312.00
2024-01-28T05:46:17.269Z,100318.19
2024-01-28T05:48:44.123Z,100317.47
2024-01-28T05:51:11.018Z,100324.34
2024-01-28T05:53:37.896Z,100334.69
2024-01-28T05:56:05.265Z,100319.00
2024-01-28T05:58:31.975Z,100339.06
2024-01-28T06:01:02.815Z,100339.94
2024-01-28T06:03:30.080Z,100322.69
2024-01-28T06:05:56.720Z,100347.91
2024-01-28T06:08:24.309Z,100348.78
2024-01-28T06:10:50.931Z,100350.63
2024-01-28T06:13:17.782Z,100347.91
2024-01-28T06:15:44.615Z,100349.69
2024-01-28T06:18:11.301Z,100359.34
2024-01-28T06:20:37.980Z,100359.34
2024-01-28T06:23:04.972Z,100354.00
2024-01-28T06:25:31.561Z,100356.56
2024-01-28T06:27:58.168Z,100359.28
2024-01-28T06:30:25.051Z,100365.31
2024-01-28T06:32:51.813Z,100365.31
2024-01-28T06:35:19.086Z,100363.56
2024-01-28T06:37:45.941Z,100360.09
2024-01-28T06:40:13.847Z,100371.50
2024-01-28T06:42:40.589Z,100365.44
2024-01-28T06:45:09.441Z,100365.44
2024-01-28T06:47:36.395Z,100359.22
2024-01-28T06:50:03.694Z,100363.66
2024-01-28T06:52:30.590Z,100365.44
2024-01-28T06:54:57.473Z,100361.84
2024-01-28T06:57:24.277Z,100360.16
2024-01-28T06:59:51.001Z,100365.31
2024-01-28T07:02:17.739Z,100360.94
2024-01-28T07:04:44.496Z,100359.97
2024-01-28T07:07:11.330Z,100351.50
2024-01-28T07:09:38.030Z,100367.06
2024-01-28T07:12:07.047Z,100354.19
2024-01-28T07:14:33.820Z,100369.69
2024-01-28T07:17:00.868Z,100366.28
2024-01-28T07:19:28.126Z,100376.72
2024-01-28T07:21:55.042Z,100374.13
2024-01-28T07:24:21.809Z,100381.09
2024-01-28T07:26:48.463Z,100373.22
2024-01-28T07:29:15.196Z,100377.69
2024-01-28T07:31:41.916Z,100380.19
2024-01-28T07:34:08.662Z,100383.75
2024-01-28T07:36:38.644Z,100390.88
2024-01-28T07:39:08.049Z,100380.53
2024-01-28T07:41:37.210Z,100393.50
2024-01-28T07:44:04.316Z,100403.97
2024-01-28T07:46:31.008Z,100400.47
2024-01-28T07:48:57.928Z,100409.19
2024-01-28T07:51:24.754Z,100406.53
2024-01-28T07:53:51.612Z,100397.75
2024-01-28T07:56:18.326Z,100405.63
2024-01-28T07:58:45.209Z,100396.84
2024-01-28T08:01:12.038Z,100413.44
2024-01-28T08:03:39.568Z,100394.94
2024-01-28T08:06:08.808Z,100404.63
2024-01-28T08:08:35.541Z,100394.13
2024-01-28T08:11:02.987Z,100406.34
2024-01-28T08:13:29.747Z,100404.47
2024-01-28T08:16:03.147Z,100402.88
2024-01-28T08:18:30.258Z,100396.72
2024-01-28T08:20:57.490Z,100408.91
2024-01-28T08:23:24.523Z,100408.00
2024-01-28T08:25:51.286Z,100408.91
2024-01-28T08:28:18.205Z,100419.47
2024-01-28T08:30:46.080Z,100433.44
2024-01-28T08:33:13.229Z,100423.75
2024-01-28T08:35:42.594Z,100424.59
2024-01-28T08:38:09.674Z,100412.44
2024-01-28T08:40:36.453Z,100422.88
2024-01-28T08:43:05.760Z,100421.97
2024-01-28T08:45:33.194Z,100411.47
2024-01-28T08:48:01.111Z,100425.47
2024-01-28T08:50:27.813Z,100418.59
2024-01-28T08:52:54.481Z,100428.97
2024-01-28T08:55:21.055Z,100428.97
2024-01-28T08:57:47.957Z,100435.09
2024-01-28T09:00:15.452Z,100444.75
2024-01-28T09:02:42.424Z,100436.97
2024-01-28T09:05:09.593Z,100440.28
2024-01-28T09:07:36.588Z,100427.16
2024-01-28T09:10:03.706Z,100437.38
2024-01-28T09:12:30.366Z,100439.97
2024-01-28T09:14:57.070Z,100446.97
2024-01-28T09:17:23.787Z,100445.25
2024-01-28T09:19:50.367Z,100447.81
2024-01-28T09:22:17.184Z,100442.78
2024-01-28T09:24:43.901Z,100454.09
2024-01-28T09:27:11.613Z,100449.00
2024-01-28T09:29:39.564Z,100460.25
2024-01-28T09:32:06.545Z,100464.63
2024-01-28T09:34:33.287Z,100461.91
2024-01-28T09:37:00.135Z,100469.91
2024-01-28T09:39:26.999Z,100466.31
2024-01-28T09:42:01.962Z,100458.59
2024-01-28T09:44:28.676Z,100469.84
2024-01-28T09:46:55.593Z,100468.97
2024-01-28T09:49:23.930Z,100462.75
2024-01-28T09:51:50.838Z,100465.47
2024-01-28T09:54:18.531Z,100470.75
2024-01-28T09:56:46.771Z,100471.56
2024-01-28T09:59:16.718Z,100467.06
2024-01-28T10:01:44.098Z,100468.09
2024-01-28T10:04:12.090Z,100468.75
2024-01-28T10:06:39.038Z,100473.97
2024-01-28T10:09:06.484Z,100467.78
2024-01-28T10:11:34.304Z,100473.88
2024-01-28T10:14:00.890Z,100473.78
2024-01-28T10:16:31.933Z,100471.16
2024-01-28T10:18:59.021Z,100466.03
2024-01-28T10:21:26.337Z,100460.69
2024-01-28T10:23:54.469Z,100471.91
2024-01-28T10:26:21.838Z,100478.94
2024-01-28T10:28:48.476Z,100476.28
2024-01-28T10:31:15.167Z,100465.72
2024-01-28T10:33:42.063Z,100463.13
2024-01-28T10:36:10.611Z,100444.81
2024-01-28T10:38:44.616Z,100445.66
2024-01-28T10:41:16.520Z,100448.19
2024-01-28T10:43:51.144Z,100447.38
2024-01-28T10:46:26.891Z,100438.53
2024-01-28T10:48:59.121Z,100437.94
2024-01-28T10:51:26.170Z,100453.47
2024-01-28T10:53:53.495Z,100445.41
2024-01-28T10:56:20.726Z,100451.50
2024-01-28T10:58:47.479Z,100450.66
2024-01-28T11:01:14.817Z,100459.38
2024-01-28T11:03:41.708Z,100456.72
2024-01-28T11:06:08.587Z,100451.41
2024-01-28T11:08:36.033Z,100449.53
2024-01-28T11:11:02.865Z,100456.53
2024-01-28T11:13:29.560Z,100460.00
2024-01-28T11:15:56.603Z,100447.75
2024-01-28T11:18:33.394Z,100452.06
2024-01-28T11:21:12.671Z,100445.91
2024-01-28T11:23:44.515Z,100442.41
2024-01-28T11:26:19.024Z,100452.06
2024-01-28T11:28:53.883Z,100452.97
2024-01-28T11:31:33.619Z,100459.91
2024-01-28T11:34:21.178Z,100463.44
2024-01-28T11:36:55.389Z,100467.78
2024-01-28T11:39:49.673Z,100469.56
2024-01-28T11:42:16.541Z,100430.03
2024-01-28T11:44:47.701Z,100467.78
2024-01-28T11:47:18.634Z,100465.13
2024-01-28T11:49:45.888Z,100467.75
2024-01-28T11:52:13.225Z,100462.50
2024-01-28T11:54:40.319Z,100468.66
2024-01-28T11:57:07.284Z,100469.50
2024-01-28T11:59:35.387Z,100458.19
2024-01-28T12:02:06.002Z,100465.13
2024-01-28T12:04:32.740Z,100465.22
2024-01-28T12:07:00.903Z,100478.25
2024-01-28T12:09:31.322Z,100477.44
2024-01-28T12:11:58.385Z,100476.53
2024-01-28T12:14:25.373Z,100476.44
2024-01-28T12:16:52.137Z,100478.16
2024-01-28T12:19:19.433Z,100470.25
2024-01-28T12:21:48.400Z,100474.53
2024-01-28T12:24:15.480Z,100474.63
2024-01-28T12:26:44.894Z,100485.13
2024-01-28T12:29:11.986Z,100480.72
2024-01-28T12:31:39.082Z,100471.81
2024-01-28T12:34:16.160Z,100475.28
2024-01-28T12:36:43.120Z,100470.00
2024-01-28T12:39:09.868Z,100477.91
2024-01-28T12:41:36.887Z,100470.88
2024-01-28T12:44:04.899Z,100472.56
2024-01-28T12:46:33.096Z,100479.72
2024-01-28T12:49:00.647Z,100468.97
2024-01-28T12:51:27.740Z,100466.31
2024-01-28T12:53:54.713Z,100467.09
2024-01-28T12:56:21.547Z,100461.88
2024-01-28T12:58:48.431Z,100418.88
2024-01-28T13:03:41.050Z,100465.44
2024-01-28T13:06:08.945Z,100469.66
2024-01-28T13:08:36.312Z,100463.59
2024-01-28T13:11:05.290Z,100481.03
2024-01-28T13:13:34.977Z,100480.13
2024-01-28T13:16:02.115Z,100480.97
2024-01-28T13:18:34.054Z,100481.84
2024-01-28T13:21:02.927Z,100487.94
2024-01-28T13:23:29.639Z,100484.38
2024-01-28T13:25:56.356Z,100489.66
2024-01-28T13:28:23.167Z,100485.31
2024-01-28T13:30:50.119Z,100482.66
2024-01-28T13:33:16.981Z,100491.41
2024-01-28T13:35:44.032Z,100491.28
2024-01-28T13:38:10.677Z,100485.13
2024-01-28T13:40:37.463Z,100492.97
2024-01-28T13:43:04.577Z,100486.91
2024-01-28T13:45:31.381Z,100493.84
2024-01-28T13:47:58.243Z,100473.00
2024-01-28T13:50:25.038Z,100479.06
2024-01-28T13:52:51.715Z,100482.41
2024-01-28T13:55:18.516Z,100488.69
2024-01-28T13:57:45.306Z,100492.97
2024-01-28T14:00:12.874Z,100498.22
2024-01-28T14:02:41.810Z,100490.34
2024-01-28T14:05:11.723Z,100490.47
2024-01-28T14:07:38.954Z,100489.50
2024-01-28T14:10:06.268Z,100495.78
2024-01-28T14:12:33.175Z,100497.41
2024-01-28T14:15:00.230Z,100494.84
2024-01-28T14:17:27.043Z,100494.91
2024-01-28T14:19:53.914Z,100493.06
2024-01-28T14:22:20.589Z,100500.97
2024-01-28T14:24:47.547Z,100495.78
2024-01-28T14:27:14.565Z,100496.75
2024-01-28T14:29:41.443Z,100500.31
2024-01-28T14:32:08.276Z,100493.53
2024-01-28T14:34:35.276Z,100506.56
2024-01-28T14:37:02.628Z,100497.06
2024-01-28T14:39:31.618Z,100500.53
2024-01-28T14:42:03.303Z,100504.91
2024-01-28T14:44:30.102Z,100505.97
2024-01-28T14:47:00.430Z,100507.66
2024-01-28T14:49:28.096Z,100507.66
2024-01-28T14:51:55.264Z,100508.63
2024-01-28T14:54:22.145Z,100512.97
2024-01-28T14:56:49.085Z,100505.91
2024-01-28T14:59:15.722Z,100512.22
2024-01-28T15:01:42.426Z,100505.09
2024-01-28T15:04:09.359Z,100500.69
2024-01-28T15:06:36.298Z,100495.56
2024-01-28T15:09:05.863Z,100495.44
2024-01-28T15:11:36.046Z,100506.81
2024-01-28T15:14:03.275Z,100491.22
2024-01-28T15:16:30.209Z,100502.53
2024-01-28T15:18:57.522Z,100497.22
2024-01-28T15:21:27.070Z,100491.06
2024-01-28T15:23:53.858Z,100489.41
2024-01-28T15:26:21.273Z,100492.03
2024-01-28T15:28:48.065Z,100455.97
2024-01-28T15:31:14.869Z,100489.41
2024-01-28T15:33:41.946Z,100494.66
2024-01-28T15:36:12.531Z,100500.88
2024-01-28T15:38:43.479Z,100507.00
2024-01-28T15:41:11.769Z,100509.66
2024-01-28T15:43:38.491Z,100508.84
2024-01-28T15:46:08.470Z,100508.81
2024-01-28T15:48:36.776Z,100514.94
2024-01-28T15:51:05.150Z,100510.56
2024-01-28T15:53:32.382Z,100522.06
2024-01-28T15:55:59.465Z,100515.06
2024-01-28T15:58:27.582Z,100513.28
2024-01-28T16:00:54.401Z,100515.91
2024-01-28T16:03:21.274Z,100512.44
2024-01-28T16:05:48.020Z,100514.13
2024-01-28T16:08:15.091Z,100504.53
2024-01-28T16:10:42.016Z,100509.91
2024-01-28T16:13:08.887Z,100513.22
2024-01-28T16:15:35.799Z,100515.84
2024-01-28T16:18:02.893Z,100517.66
2024-01-28T16:20:29.917Z,100528.22
2024-01-28T16:23:00.424Z,100519.41
2024-01-28T16:25:29.529Z,100519.41
2024-01-28T16:28:00.931Z,100521.13
2024-01-28T16:30:28.922Z,100522.03
2024-01-28T16:32:55.851Z,100523.75
2024-01-28T16:35:22.959Z,100522.03
2024-01-28T16:37:53.830Z,100521.09
2024-01-28T16:40:21.058Z,100526.31
2024-01-28T16:42:48.272Z,100517.50
2024-01-28T16:45:17.574Z,100524.59
2024-01-28T16:47:45.382Z,100523.75
2024-01-28T16:50:13.986Z,100515.75
2024-01-28T16:52:41.696Z,100522.06
2024-01-28T16:55:09.075Z,100517.56
2024-01-28T16:57:36.057Z,100516.66
2024-01-28T17:00:03.662Z,100517.47
2024-01-28T17:02:30.341Z,100512.44
2024-01-28T17:05:00.400Z,100527.25
2024-01-28T17:07:28.579Z,100533.38
2024-01-28T17:09:55.400Z,100529.88
2024-01-28T17:12:22.485Z,100523.75
2024-01-28T17:14:49.420Z,100525.50
2024-01-28T17:17:16.241Z,100528.16
2024-01-28T17:19:42.984Z,100529.88
2024-01-28T17:22:10.327Z,100528.09
2024-01-28T17:24:37.529Z,100522.06
2024-01-28T17:27:04.854Z,100509.06
2024-01-28T17:29:31.625Z,100524.59
2024-01-28T17:31:58.439Z,100535.09
2024-01-28T17:34:25.253Z,100528.91
2024-01-28T17:36:52.629Z,100536.91
2024-01-28T17:39:19.432Z,100536.81
2024-01-28T17:41:46.130Z,100543.00
2024-01-28T17:44:15.087Z,100537.72
2024-01-28T17:46:41.952Z,100534.25
2024-01-28T17:49:08.883Z,100520.22
2024-01-28T17:51:35.911Z,100536.03
2024-01-28T17:54:02.812Z,100534.34
2024-01-28T17:56:30.244Z,100535.28
2024-01-28T17:58:57.093Z,100541.44
2024-01-28T18:01:24.953Z,100540.56
2024-01-28T18:03:51.880Z,100548.50
2024-01-28T18:06:19.258Z,100534.59
2024-01-28T18:08:46.159Z,100549.44
2024-01-28T18:11:13.875Z,100545.06
2024-01-28T18:13:41.364Z,100545.06
2024-01-28T18:16:11.917Z,100540.81
2024-01-28T18:18:38.797Z,100537.25
2024-01-28T18:21:05.751Z,100544.16
2024-01-28T18:23:32.591Z,100527.59
2024-01-28T18:25:59.655Z,100539.84
2024-01-28T18:28:26.824Z,100526.69
2024-01-28T18:30:53.550Z,100529.47
2024-01-28T18:33:20.452Z,100538.97
2024-01-28T18:35:52.254Z,100539.84
2024-01-28T18:38:19.549Z,100536.34
2024-01-28T18:43:03.213Z,100539.91
2024-01-28T18:45:29.965Z,100538.13
2024-01-28T18:47:56.690Z,100535.53
2024-01-28T18:50:23.661Z,100528.47
2024-01-28T18:52:50.514Z,100534.69
2024-01-28T18:55:17.247Z,100530.25
2024-01-28T18:57:44.074Z,100523.19
2024-01-28T19:00:15.025Z,100519.88
2024-01-28T19:02:41.856Z,100528.53
2024-01-28T19:05:09.013Z,100522.38
2024-01-28T19:07:36.290Z,100521.53
2024-01-28T19:10:03.307Z,100528.53
2024-01-28T19:12:30.056Z,100519.66
2024-01-28T19:14:57.558Z,100519.72
2024-01-28T19:17:24.782Z,100515.38
2024-01-28T19:19:51.468Z,100513.59
2024-01-28T19:22:18.124Z,100511.88
2024-01-28T19:24:45.377Z,100512.78
2024-01-28T19:27:12.327Z,100503.28
2024-01-28T19:29:40.301Z,100506.66
2024-01-28T19:32:07.493Z,100512.78
2024-01-28T19:34:34.432Z,100462.97
2024-01-28T19:37:01.400Z,100517.22
2024-01-28T19:39:34.192Z,100518.16
2024-01-28T19:42:03.011Z,100526.16
2024-01-28T19:44:30.440Z,100531.44
2024-01-28T19:46:57.128Z,100534.94
2024-01-28T19:49:24.018Z,100532.28
2024-01-28T19:51:50.911Z,100528.78
2024-01-28T19:54:21.876Z,100515.75
2024-01-28T19:56:49.406Z,100526.19
2024-01-28T19:59:16.062Z,100531.44
2024-01-28T20:01:42.818Z,100525.25
2024-01-28T20:04:09.708Z,100528.97
2024-01-28T20:06:37.863Z,100538.47
2024-01-28T20:09:05.902Z,100493.78
2024-01-28T20:11:32.907Z,100532.34
2024-01-28T20:13:59.697Z,100534.06
2024-01-28T20:16:26.520Z,100537.50
2024-01-28T20:18:53.453Z,100528.72
2024-01-28T20:21:20.390Z,100522.56
2024-01-28T20:23:48.035Z,100523.44
2024-01-28T20:26:19.971Z,100519.88
2024-01-28T20:28:47.136Z,100518.16
2024-01-28T20:31:18.443Z,100519.00
2024-01-28T20:33:45.385Z,100522.56
2024-01-28T20:36:12.079Z,100516.41
2024-01-28T20:38:38.826Z,100516.41
2024-01-28T20:41:06.627Z,100513.72
2024-01-28T20:43:33.334Z,100520.78
2024-01-28T20:46:00.894Z,100513.72
2024-01-28T20:48:28.806Z,100519.00
2024-01-28T20:50:55.648Z,100519.00
2024-01-28T20:53:22.619Z,100501.56
2024-01-28T20:55:50.145Z,100501.47
2024-01-28T20:58:16.909Z,100502.16
2024-01-28T21:00:44.129Z,100494.22
2024-01-28T21:03:11.356Z,100502.09
2024-01-28T21:05:38.241Z,100502.97
2024-01-28T21:08:05.365Z,100504.59
2024-01-28T21:10:32.082Z,100502.84
2024-01-28T21:12:59.033Z,100502.88
2024-01-28T21:15:25.955Z,100496.81
2024-01-28T21:17:55.370Z,100503.03
2024-01-28T21:20:23.435Z,100508.31
2024-01-28T21:22:50.407Z,100502.88
2024-01-28T21:25:17.103Z,100496.69
2024-01-28T21:27:46.804Z,100500.19
2024-01-28T21:30:14.551Z,100486.28
2024-01-28T21:32:41.502Z,100500.19
2024-01-28T21:35:08.916Z,100500.19
2024-01-28T21:37:35.637Z,100495.88
2024-01-28T21:40:02.468Z,100499.31
2024-01-28T21:42:29.274Z,100495.88
2024-01-28T21:44:55.938Z,100479.31
2024-01-28T21:47:22.611Z,100488.00
2024-01-28T21:49:49.279Z,100491.53
2024-01-28T21:52:16.060Z,100481.94
2024-01-28T21:54:42.905Z,100484.59
2024-01-28T21:57:09.629Z,100480.41
2024-01-28T21:59:36.354Z,100500.50
2024-01-28T22:02:02.958Z,100501.41
2024-01-28T22:04:29.981Z,100503.19
2024-01-28T22:06:56.907Z,100489.13
2024-01-28T22:09:23.968Z,100493.47
2024-01-28T22:11:50.611Z,100491.78
2024-01-28T22:14:18.052Z,100497.09
2024-01-28T22:16:44.728Z,100498.03
2024-01-28T22:19:11.506Z,100499.72
2024-01-28T22:21:38.275Z,100503.28
2024-01-28T22:24:08.216Z,100505.91
2024-01-28T22:26:34.995Z,100516.50
2024-01-28T22:29:01.668Z,100512.22
2024-01-28T22:31:28.770Z,100501.78
2024-01-28T22:33:57.412Z,100510.47
2024-01-28T22:36:24.724Z,100503.44
2024-01-28T22:38:51.399Z,100509.59
2024-01-28T22:41:18.072Z,100502.63
2024-01-28T22:43:44.882Z,100504.44
2024-01-28T22:46:11.921Z,100505.25
2024-01-28T22:48:38.684Z,100498.34
2024-01-28T22:51:06.348Z,100516.66
2024-01-28T22:53:35.965Z,100513.28
2024-01-28T22:56:04.689Z,100505.25
2024-01-28T22:58:31.669Z,100510.53
2024-01-28T23:01:04.334Z,100506.34
2024-01-28T23:03:31.603Z,100502.63
2024-01-28T23:05:58.703Z,100493.13
2024-01-28T23:08:25.722Z,100495.59
2024-01-28T23:10:52.870Z,100485.94
2024-01-28T23:13:19.612Z,100487.69
2024-01-28T23:15:46.303Z,100498.28
2024-01-28T23:18:22.139Z,100498.34
2024-01-28T23:20:53.000Z,100497.44
2024-01-28T23:23:19.866Z,100489.50
2024-01-28T23:25:46.485Z,100489.50
2024-01-28T23:28:13.290Z,100482.47
2024-01-28T23:30:40.001Z,100472.09
2024-01-28T23:33:06.947Z,100474.63
2024-01-28T23:35:33.987Z,100471.97
2024-01-28T23:38:00.948Z,100472.81
2024-01-28T23:40:28.318Z,100459.94
2024-01-28T23:42:55.329Z,100458.09
2024-01-28T23:45:22.001Z,100453.47
2024-01-28T23:47:48.696Z,100444.72
2024-01-28T23:50:15.930Z,100433.25
2024-01-28T23:52:42.831Z,100431.59
2024-01-28T23:55:10.426Z,100436.03
2024-01-28T23:57:37.491Z,100440.34
